sensor_id;sensor_type;location;lat;lon;timestamp;pressure;altitude;pressure_sealevel;temperature;humidity
49315;BME280;36672;50.710;12.498;2023-02-17T00:01:44;99021.69;;;7.68;64.88
49315;BME280;36672;50.710;12.498;2023-02-17T00:04:10;99025.19;;;7.68;64.71
49315;BME280;36672;50.710;12.498;2023-02-17T00:06:35;99014.13;;;7.72;64.53
49315;BME280;36672;50.710;12.498;2023-02-17T00:09:00;99015.94;;;7.71;64.84
49315;BME280;36672;50.710;12.498;2023-02-17T00:11:26;99021.84;;;7.75;64.37
49315;BME280;36672;50.710;12.498;2023-02-17T00:13:52;99015.47;;;7.76;64.40
49315;BME280;36672;50.710;12.498;2023-02-17T00:16:18;99010.75;;;7.78;64.73
49315;BME280;36672;50.710;12.498;2023-02-17T00:18:44;99007.91;;;7.79;64.41
49315;BME280;36672;50.710;12.498;2023-02-17T00:21:11;99007.91;;;7.79;64.18
49315;BME280;36672;50.710;12.498;2023-02-17T00:23:36;99010.41;;;7.81;64.52
49315;BME280;36672;50.710;12.498;2023-02-17T00:26:03;99006.03;;;7.80;64.65
49315;BME280;36672;50.710;12.498;2023-02-17T00:28:29;99002.69;;;7.78;64.15
49315;BME280;36672;50.710;12.498;2023-02-17T00:30:54;99002.34;;;7.81;64.76
49315;BME280;36672;50.710;12.498;2023-02-17T00:33:19;98998.97;;;7.79;64.59
49315;BME280;36672;50.710;12.498;2023-02-17T00:35:44;98999.47;;;7.82;64.13
49315;BME280;36672;50.710;12.498;2023-02-17T00:38:10;99000.97;;;7.85;64.63
49315;BME280;36672;50.710;12.498;2023-02-17T00:40:35;98988.88;;;7.89;64.45
49315;BME280;36672;50.710;12.498;2023-02-17T00:43:00;98992.22;;;7.91;64.38
49315;BME280;36672;50.710;12.498;2023-02-17T00:45:25;98994.91;;;7.91;64.50
49315;BME280;36672;50.710;12.498;2023-02-17T00:47:50;98995.28;;;7.88;64.56
49315;BME280;36672;50.710;12.498;2023-02-17T00:50:16;98988.72;;;7.91;64.42
49315;BME280;36672;50.710;12.498;2023-02-17T00:52:41;98993.22;;;7.90;64.46
49315;BME280;36672;50.710;12.498;2023-02-17T00:55:06;98991.41;;;7.91;64.41
49315;BME280;36672;50.710;12.498;2023-02-17T00:57:31;98982.47;;;7.90;64.41
49315;BME280;36672;50.710;12.498;2023-02-17T00:59:57;98986.66;;;7.93;64.20
49315;BME280;36672;50.710;12.498;2023-02-17T01:02:22;98982.97;;;7.94;64.17
49315;BME280;36672;50.710;12.498;2023-02-17T01:04:47;98977.94;;;7.91;64.37
49315;BME280;36672;50.710;12.498;2023-02-17T01:07:12;98968.19;;;7.90;64.53
49315;BME280;36672;50.710;12.498;2023-02-17T01:09:38;98959.28;;;7.89;64.24
49315;BME280;36672;50.710;12.498;2023-02-17T01:12:03;98959.28;;;7.89;64.18
49315;BME280;36672;50.710;12.498;2023-02-17T01:14:28;98954.91;;;7.88;64.50
49315;BME280;36672;50.710;12.498;2023-02-17T01:16:53;98958.25;;;7.90;64.30
49315;BME280;36672;50.710;12.498;2023-02-17T01:19:18;98968.69;;;7.93;64.50
49315;BME280;36672;50.710;12.498;2023-02-17T01:21:44;98966.81;;;7.94;64.20
49315;BME280;36672;50.710;12.498;2023-02-17T01:24:10;98957.25;;;7.91;64.38
49315;BME280;36672;50.710;12.498;2023-02-17T01:26:35;98951.69;;;7.93;64.06
49315;BME280;36672;50.710;12.498;2023-02-17T01:29:01;98951.53;;;7.94;64.56
49315;BME280;36672;50.710;12.498;2023-02-17T01:31:27;98955.25;;;7.93;64.39
49315;BME280;36672;50.710;12.498;2023-02-17T01:33:54;98953.38;;;7.94;64.78
49315;BME280;36672;50.710;12.498;2023-02-17T01:36:19;98944.81;;;7.90;65.08
49315;BME280;36672;50.710;12.498;2023-02-17T01:38:45;98937.41;;;7.92;65.16
49315;BME280;36672;50.710;12.498;2023-02-17T01:41:11;98941.66;;;7.87;66.59
49315;BME280;36672;50.710;12.498;2023-02-17T01:43:36;98925.69;;;7.77;66.52
49315;BME280;36672;50.710;12.498;2023-02-17T01:46:02;98924.34;;;7.73;66.60
49315;BME280;36672;50.710;12.498;2023-02-17T01:48:42;98913.94;;;7.70;66.85
49315;BME280;36672;50.710;12.498;2023-02-17T01:51:10;98911.25;;;7.70;66.86
49315;BME280;36672;50.710;12.498;2023-02-17T01:53:39;98902.16;;;7.71;66.33
49315;BME280;36672;50.710;12.498;2023-02-17T01:56:06;98903.66;;;7.73;66.28
49315;BME280;36672;50.710;12.498;2023-02-17T01:58:32;98896.94;;;7.77;66.54
49315;BME280;36672;50.710;12.498;2023-02-17T02:00:58;98895.09;;;7.78;65.97
49315;BME280;36672;50.710;12.498;2023-02-17T02:03:25;98906.84;;;7.77;66.09
49315;BME280;36672;50.710;12.498;2023-02-17T02:05:51;98920.81;;;7.80;66.15
49315;BME280;36672;50.710;12.498;2023-02-17T02:08:17;98920.44;;;7.83;66.20
49315;BME280;36672;50.710;12.498;2023-02-17T02:10:42;98921.13;;;7.86;65.81
49315;BME280;36672;50.710;12.498;2023-02-17T02:13:07;98920.94;;;7.87;65.92
49315;BME280;36672;50.710;12.498;2023-02-17T02:18:34;98923.28;;;7.90;66.26
49315;BME280;36672;50.710;12.498;2023-02-17T02:23:55;98907.97;;;7.99;65.80
49315;BME280;36672;50.710;12.498;2023-02-17T02:34:16;98902.75;;;7.97;66.30
49315;BME280;36672;50.710;12.498;2023-02-17T02:36:47;98898.69;;;8.02;66.36
49315;BME280;36672;50.710;12.498;2023-02-17T02:39:18;98900.38;;;8.03;66.29
49315;BME280;36672;50.710;12.498;2023-02-17T02:41:48;98890.28;;;8.05;66.26
49315;BME280;36672;50.710;12.498;2023-02-17T02:44:17;98896.50;;;8.05;66.43
49315;BME280;36672;50.710;12.498;2023-02-17T02:46:43;98897.19;;;7.99;66.75
49315;BME280;36672;50.710;12.498;2023-02-17T02:49:08;98892.66;;;7.99;66.70
49315;BME280;36672;50.710;12.498;2023-02-17T02:54:05;98888.97;;;8.00;67.09
49315;BME280;36672;50.710;12.498;2023-02-17T03:04:16;98893.31;;;8.02;67.81
49315;BME280;36672;50.710;12.498;2023-02-17T03:06:45;98881.53;;;8.03;67.69
49315;BME280;36672;50.710;12.498;2023-02-17T03:09:20;98885.94;;;7.95;68.69
49315;BME280;36672;50.710;12.498;2023-02-17T03:11:45;98880.22;;;7.90;70.07
49315;BME280;36672;50.710;12.498;2023-02-17T03:14:13;98889.50;;;7.88;70.59
49315;BME280;36672;50.710;12.498;2023-02-17T03:16:39;98882.59;;;7.85;71.04
49315;BME280;36672;50.710;12.498;2023-02-17T03:19:05;98878.78;;;7.79;71.44
49315;BME280;36672;50.710;12.498;2023-02-17T03:21:35;98875.53;;;7.84;71.52
49315;BME280;36672;50.710;12.498;2023-02-17T03:24:01;98870.03;;;7.77;72.05
49315;BME280;36672;50.710;12.498;2023-02-17T03:26:27;98874.25;;;7.72;72.31
49315;BME280;36672;50.710;12.498;2023-02-17T03:28:52;98872.56;;;7.71;72.28
49315;BME280;36672;50.710;12.498;2023-02-17T03:31:17;98860.13;;;7.70;72.56
49315;BME280;36672;50.710;12.498;2023-02-17T03:33:42;98853.38;;;7.74;72.07
49315;BME280;36672;50.710;12.498;2023-02-17T03:36:08;98848.19;;;7.72;72.48
49315;BME280;36672;50.710;12.498;2023-02-17T03:38:33;98840.81;;;7.74;72.29
49315;BME280;36672;50.710;12.498;2023-02-17T03:40:58;98838.75;;;7.76;72.51
49315;BME280;36672;50.710;12.498;2023-02-17T03:43:23;98847.31;;;7.80;72.22
49315;BME280;36672;50.710;12.498;2023-02-17T03:45:48;98842.31;;;7.68;73.43
49315;BME280;36672;50.710;12.498;2023-02-17T03:48:14;98842.31;;;7.68;73.14
49315;BME280;36672;50.710;12.498;2023-02-17T03:50:39;98840.13;;;7.72;73.15
49315;BME280;36672;50.710;12.498;2023-02-17T03:53:04;98846.34;;;7.73;73.52
49315;BME280;36672;50.710;12.498;2023-02-17T03:55:29;98839.78;;;7.75;73.48
49315;BME280;36672;50.710;12.498;2023-02-17T03:57:54;98845.69;;;7.71;74.43
49315;BME280;36672;50.710;12.498;2023-02-17T04:00:20;98834.56;;;7.74;74.56
49315;BME280;36672;50.710;12.498;2023-02-17T04:02:45;98829.03;;;7.75;74.13
49315;BME280;36672;50.710;12.498;2023-02-17T04:05:11;98831.53;;;7.77;74.62
49315;BME280;36672;50.710;12.498;2023-02-17T04:07:36;98829.88;;;7.76;74.55
49315;BME280;36672;50.710;12.498;2023-02-17T04:10:01;98825.31;;;7.76;74.94
49315;BME280;36672;50.710;12.498;2023-02-17T04:12:27;98820.28;;;7.73;75.53
49315;BME280;36672;50.710;12.498;2023-02-17T04:14:52;98825.19;;;7.70;75.66
49315;BME280;36672;50.710;12.498;2023-02-17T04:17:17;98833.28;;;7.61;76.52
49315;BME280;36672;50.710;12.498;2023-02-17T04:19:43;98831.06;;;7.65;75.63
49315;BME280;36672;50.710;12.498;2023-02-17T04:22:08;98829.75;;;7.61;76.55
49315;BME280;36672;50.710;12.498;2023-02-17T04:24:34;98830.06;;;7.66;76.13
49315;BME280;36672;50.710;12.498;2023-02-17T04:26:59;98831.56;;;7.68;75.75
49315;BME280;36672;50.710;12.498;2023-02-17T04:29:25;98837.63;;;7.62;76.63
49315;BME280;36672;50.710;12.498;2023-02-17T04:31:50;98840.50;;;7.61;76.86
49315;BME280;36672;50.710;12.498;2023-02-17T04:34:15;98848.25;;;7.56;76.83
49315;BME280;36672;50.710;12.498;2023-02-17T04:36:40;98827.91;;;7.53;77.08
49315;BME280;36672;50.710;12.498;2023-02-17T04:39:06;98834.84;;;7.47;76.79
49315;BME280;36672;50.710;12.498;2023-02-17T04:41:31;98835.16;;;7.44;76.79
49315;BME280;36672;50.710;12.498;2023-02-17T04:43:56;98838.84;;;7.43;76.79
49315;BME280;36672;50.710;12.498;2023-02-17T04:46:21;98836.34;;;7.50;76.59
49315;BME280;36672;50.710;12.498;2023-02-17T04:48:46;98838.16;;;7.49;76.49
49315;BME280;36672;50.710;12.498;2023-02-17T04:51:12;98826.91;;;7.46;76.60
49315;BME280;36672;50.710;12.498;2023-02-17T04:53:37;98831.28;;;7.47;76.42
49315;BME280;36672;50.710;12.498;2023-02-17T04:56:02;98832.78;;;7.49;76.56
49315;BME280;36672;50.710;12.498;2023-02-17T04:58:27;98829.78;;;7.44;76.48
49315;BME280;36672;50.710;12.498;2023-02-17T05:00:53;98824.59;;;7.43;76.64
49315;BME280;36672;50.710;12.498;2023-02-17T05:03:18;98825.09;;;7.46;76.44
49315;BME280;36672;50.710;12.498;2023-02-17T05:05:43;98826.41;;;7.50;76.51
49315;BME280;36672;50.710;12.498;2023-02-17T05:08:08;98824.03;;;7.56;75.90
49315;BME280;36672;50.710;12.498;2023-02-17T05:10:33;98819.84;;;7.53;76.08
49315;BME280;36672;50.710;12.498;2023-02-17T05:12:59;98826.72;;;7.56;75.82
49315;BME280;36672;50.710;12.498;2023-02-17T05:15:24;98824.72;;;7.58;75.79
49315;BME280;36672;50.710;12.498;2023-02-17T05:17:49;98821.66;;;7.61;75.74
49315;BME280;36672;50.710;12.498;2023-02-17T05:20:14;98820.53;;;7.55;75.38
49315;BME280;36672;50.710;12.498;2023-02-17T05:22:40;98824.22;;;7.54;75.94
49315;BME280;36672;50.710;12.498;2023-02-17T05:25:05;98830.44;;;7.55;75.93
49315;BME280;36672;50.710;12.498;2023-02-17T05:27:30;98811.59;;;7.55;76.04
49315;BME280;36672;50.710;12.498;2023-02-17T05:29:56;98810.78;;;7.54;76.07
49315;BME280;36672;50.710;12.498;2023-02-17T05:32:21;98821.19;;;7.57;76.39
49315;BME280;36672;50.710;12.498;2023-02-17T05:34:47;98818.16;;;7.60;75.89
49315;BME280;36672;50.710;12.498;2023-02-17T05:37:12;98807.03;;;7.63;75.93
49315;BME280;36672;50.710;12.498;2023-02-17T05:39:37;98813.44;;;7.62;75.80
49315;BME280;36672;50.710;12.498;2023-02-17T05:42:02;98804.03;;;7.58;76.14
49315;BME280;36672;50.710;12.498;2023-02-17T05:44:28;98816.16;;;7.54;76.33
49315;BME280;36672;50.710;12.498;2023-02-17T05:46:53;98812.47;;;7.55;76.77
49315;BME280;36672;50.710;12.498;2023-02-17T05:49:18;98818.34;;;7.59;76.72
49315;BME280;36672;50.710;12.498;2023-02-17T05:51:43;98825.06;;;7.55;76.96
49315;BME280;36672;50.710;12.498;2023-02-17T05:54:09;98816.16;;;7.54;76.69
49315;BME280;36672;50.710;12.498;2023-02-17T05:56:34;98814.78;;;7.58;76.89
49315;BME280;36672;50.710;12.498;2023-02-17T05:58:59;98813.78;;;7.59;77.22
49315;BME280;36672;50.710;12.498;2023-02-17T06:01:25;98812.78;;;7.60;77.14
49315;BME280;36672;50.710;12.498;2023-02-17T06:03:50;98807.72;;;7.57;77.32
49315;BME280;36672;50.710;12.498;2023-02-17T06:06:15;98807.72;;;7.57;77.25
49315;BME280;36672;50.710;12.498;2023-02-17T06:08:40;98804.72;;;7.60;77.22
49315;BME280;36672;50.710;12.498;2023-02-17T06:11:06;98811.59;;;7.55;77.27
49315;BME280;36672;50.710;12.498;2023-02-17T06:13:31;98811.91;;;7.60;77.08
49315;BME280;36672;50.710;12.498;2023-02-17T06:15:56;98821.19;;;7.57;77.33
49315;BME280;36672;50.710;12.498;2023-02-17T06:18:22;98811.59;;;7.55;77.55
49315;BME280;36672;50.710;12.498;2023-02-17T06:20:47;98807.59;;;7.59;77.21
49315;BME280;36672;50.710;12.498;2023-02-17T06:23:12;98816.13;;;7.62;77.31
49315;BME280;36672;50.710;12.498;2023-02-17T06:25:37;98815.59;;;7.67;77.14
49315;BME280;36672;50.710;12.498;2023-02-17T06:28:03;98819.97;;;7.68;77.24
49315;BME280;36672;50.710;12.498;2023-02-17T06:30:28;98831.38;;;7.70;77.07
49315;BME280;36672;50.710;12.498;2023-02-17T06:32:54;98820.16;;;7.66;77.11
49315;BME280;36672;50.710;12.498;2023-02-17T06:35:19;98825.34;;;7.68;77.41
49315;BME280;36672;50.710;12.498;2023-02-17T06:37:44;98824.69;;;7.66;77.35
49315;BME280;36672;50.710;12.498;2023-02-17T06:40:10;98822.66;;;7.68;77.66
49315;BME280;36672;50.710;12.498;2023-02-17T06:42:35;98827.88;;;7.70;77.45
49315;BME280;36672;50.710;12.498;2023-02-17T06:45:00;98821.16;;;7.65;78.23
49315;BME280;36672;50.710;12.498;2023-02-17T06:47:29;98825.34;;;7.68;78.13
49315;BME280;36672;50.710;12.498;2023-02-17T06:49:54;98828.03;;;7.68;78.14
49315;BME280;36672;50.710;12.498;2023-02-17T06:52:19;98828.34;;;7.73;77.73
49315;BME280;36672;50.710;12.498;2023-02-17T06:54:51;98826.69;;;7.72;77.94
49315;BME280;36672;50.710;12.498;2023-02-17T06:57:16;98828.34;;;7.73;78.06
49315;BME280;36672;50.710;12.498;2023-02-17T06:59:41;98826.16;;;7.77;77.79
49315;BME280;36672;50.710;12.498;2023-02-17T07:02:09;98818.75;;;7.79;77.97
49315;BME280;36672;50.710;12.498;2023-02-17T07:04:36;98818.09;;;7.77;78.44
49315;BME280;36672;50.710;12.498;2023-02-17T07:07:01;98829.16;;;7.82;78.29
49315;BME280;36672;50.710;12.498;2023-02-17T07:09:26;98834.38;;;7.83;78.42
49315;BME280;36672;50.710;12.498;2023-02-17T07:11:51;98841.63;;;7.83;77.99
49315;BME280;36672;50.710;12.498;2023-02-17T07:14:17;98843.13;;;7.86;78.02
49315;BME280;36672;50.710;12.498;2023-02-17T07:16:42;98841.75;;;7.90;78.39
49315;BME280;36672;50.710;12.498;2023-02-17T07:19:07;98835.84;;;7.94;77.75
49315;BME280;36672;50.710;12.498;2023-02-17T07:21:32;98831.97;;;7.97;77.68
49315;BME280;36672;50.710;12.498;2023-02-17T07:23:57;98832.13;;;7.95;78.13
49315;BME280;36672;50.710;12.498;2023-02-17T07:26:23;98825.41;;;7.99;77.64
49315;BME280;36672;50.710;12.498;2023-02-17T07:28:48;98815.28;;;8.02;77.32
49315;BME280;36672;50.710;12.498;2023-02-17T07:31:15;98811.75;;;8.01;77.65
49315;BME280;36672;50.710;12.498;2023-02-17T07:33:41;98805.00;;;8.05;77.60
49315;BME280;36672;50.710;12.498;2023-02-17T07:36:07;98805.84;;;8.06;77.93
49315;BME280;36672;50.710;12.498;2023-02-17T07:38:32;98804.47;;;8.10;77.58
49315;BME280;36672;50.710;12.498;2023-02-17T07:41:02;98803.63;;;8.09;77.98
49315;BME280;36672;50.710;12.498;2023-02-17T07:43:28;98800.78;;;8.11;77.89
49315;BME280;36672;50.710;12.498;2023-02-17T07:45:53;98796.41;;;8.10;77.58
49315;BME280;36672;50.710;12.498;2023-02-17T07:48:18;98791.84;;;8.10;77.83
49315;BME280;36672;50.710;12.498;2023-02-17T07:50:43;98792.72;;;8.11;77.68
49315;BME280;36672;50.710;12.498;2023-02-17T07:53:09;98790.66;;;8.13;78.11
49315;BME280;36672;50.710;12.498;2023-02-17T07:55:34;98782.25;;;8.16;77.68
49315;BME280;36672;50.710;12.498;2023-02-17T07:57:59;98784.56;;;8.19;77.91
49315;BME280;36672;50.710;12.498;2023-02-17T08:00:24;98788.94;;;8.20;77.75
49315;BME280;36672;50.710;12.498;2023-02-17T08:02:50;98788.41;;;8.25;77.42
49315;BME280;36672;50.710;12.498;2023-02-17T08:05:15;98783.19;;;8.23;77.39
49315;BME280;36672;50.710;12.498;2023-02-17T08:07:40;98780.34;;;8.25;77.50
49315;BME280;36672;50.710;12.498;2023-02-17T08:10:06;98773.75;;;8.27;77.18
49315;BME280;36672;50.710;12.498;2023-02-17T08:12:49;98780.97;;;8.27;77.54
49315;BME280;36672;50.710;12.498;2023-02-17T08:15:24;98774.41;;;8.29;77.45
49315;BME280;36672;50.710;12.498;2023-02-17T08:17:49;98779.78;;;8.29;77.06
49315;BME280;36672;50.710;12.498;2023-02-17T08:20:14;98786.50;;;8.33;77.07
49315;BME280;36672;50.710;12.498;2023-02-17T08:22:40;98790.69;;;8.36;77.04
49315;BME280;36672;50.710;12.498;2023-02-17T08:25:05;98793.03;;;8.39;77.31
49315;BME280;36672;50.710;12.498;2023-02-17T08:27:30;98783.75;;;8.42;76.92
49315;BME280;36672;50.710;12.498;2023-02-17T08:29:56;98788.94;;;8.43;76.98
49315;BME280;36672;50.710;12.498;2023-02-17T08:32:21;98785.09;;;8.46;76.53
49315;BME280;36672;50.710;12.498;2023-02-17T08:34:46;98783.06;;;8.48;76.85
49315;BME280;36672;50.710;12.498;2023-02-17T08:37:11;98789.75;;;8.52;76.77
49315;BME280;36672;50.710;12.498;2023-02-17T08:39:37;98797.31;;;8.57;76.62
49315;BME280;36672;50.710;12.498;2023-02-17T08:42:02;98796.94;;;8.60;76.39
49315;BME280;36672;50.710;12.498;2023-02-17T08:44:28;98790.66;;;8.68;76.01
49315;BME280;36672;50.710;12.498;2023-02-17T08:46:53;98790.50;;;8.69;75.81
49315;BME280;36672;50.710;12.498;2023-02-17T08:49:23;98780.91;;;8.67;75.86
49315;BME280;36672;50.710;12.498;2023-02-17T08:51:49;98780.19;;;8.73;76.01
49315;BME280;36672;50.710;12.498;2023-02-17T08:54:14;98784.72;;;8.72;75.98
49315;BME280;36672;50.710;12.498;2023-02-17T08:56:39;98775.09;;;8.78;76.19
49315;BME280;36672;50.710;12.498;2023-02-17T08:59:06;98779.28;;;8.80;75.79
49315;BME280;36672;50.710;12.498;2023-02-17T09:01:32;98774.19;;;8.86;75.96
49315;BME280;36672;50.710;12.498;2023-02-17T09:03:58;98772.41;;;8.93;75.79
49315;BME280;36672;50.710;12.498;2023-02-17T09:06:29;98776.97;;;8.92;75.23
49315;BME280;36672;50.710;12.498;2023-02-17T09:08:55;98772.31;;;8.86;75.51
49315;BME280;36672;50.710;12.498;2023-02-17T09:11:20;98759.69;;;8.87;75.42
49315;BME280;36672;50.710;12.498;2023-02-17T09:13:45;98755.13;;;8.87;75.83
49315;BME280;36672;50.710;12.498;2023-02-17T09:16:11;98756.63;;;8.90;75.81
49315;BME280;36672;50.710;12.498;2023-02-17T09:18:36;98761.25;;;8.81;75.66
49315;BME280;36672;50.710;12.498;2023-02-17T09:21:08;98749.75;;;8.87;76.27
49315;BME280;36672;50.710;12.498;2023-02-17T09:23:34;98745.38;;;8.86;76.34
49315;BME280;36672;50.710;12.498;2023-02-17T09:26:00;98752.00;;;8.98;76.14
49315;BME280;36672;50.710;12.498;2023-02-17T09:28:26;98746.34;;;9.08;75.81
49315;BME280;36672;50.710;12.498;2023-02-17T09:30:51;98743.72;;;9.15;75.43
49315;BME280;36672;50.710;12.498;2023-02-17T09:33:16;98730.34;;;9.22;75.56
49315;BME280;36672;50.710;12.498;2023-02-17T09:35:41;98739.56;;;9.27;74.74
49315;BME280;36672;50.710;12.498;2023-02-17T09:38:08;98725.06;;;9.28;74.92
49315;BME280;36672;50.710;12.498;2023-02-17T09:40:41;98725.16;;;9.35;74.41
49315;BME280;36672;50.710;12.498;2023-02-17T09:43:10;98718.81;;;9.43;74.62
49315;BME280;36672;50.710;12.498;2023-02-17T09:45:36;98720.84;;;9.56;74.29
49315;BME280;36672;50.710;12.498;2023-02-17T09:48:04;98726.31;;;9.62;73.63
49315;BME280;36672;50.710;12.498;2023-02-17T09:55:38;98730.13;;;9.68;73.65
49315;BME280;36672;50.710;12.498;2023-02-17T09:58:06;98737.28;;;9.76;73.50
49315;BME280;36672;50.710;12.498;2023-02-17T10:00:35;98704.63;;;9.71;74.36
49315;BME280;36672;50.710;12.498;2023-02-17T10:03:17;98701.69;;;9.87;74.00
49315;BME280;36672;50.710;12.498;2023-02-17T10:05:45;98694.44;;;10.09;73.20
49315;BME280;36672;50.710;12.498;2023-02-17T10:08:17;98693.66;;;10.16;71.53
49315;BME280;36672;50.710;12.498;2023-02-17T10:10:45;98690.00;;;10.23;71.52
49315;BME280;36672;50.710;12.498;2023-02-17T10:13:12;98700.50;;;10.33;71.35
49315;BME280;36672;50.710;12.498;2023-02-17T10:15:40;98700.66;;;10.47;70.87
49315;BME280;36672;50.710;12.498;2023-02-17T10:20:33;98673.47;;;10.55;70.55
49315;BME280;36672;50.710;12.498;2023-02-17T10:23:06;98680.03;;;10.67;70.65
49315;BME280;36672;50.710;12.498;2023-02-17T10:28:09;98661.31;;;10.66;69.74
49315;BME280;36672;50.710;12.498;2023-02-17T10:40:27;98673.66;;;10.82;69.32
49315;BME280;36672;50.710;12.498;2023-02-17T10:42:59;98673.56;;;10.97;69.55
49315;BME280;36672;50.710;12.498;2023-02-17T10:47:52;98651.47;;;10.86;69.15
49315;BME280;36672;50.710;12.498;2023-02-17T10:50:20;98667.91;;;10.91;68.94
49315;BME280;36672;50.710;12.498;2023-02-17T10:52:46;98653.16;;;10.94;69.46
49315;BME280;36672;50.710;12.498;2023-02-17T10:55:28;98638.03;;;11.00;68.65
49315;BME280;36672;50.710;12.498;2023-02-17T10:58:32;98638.41;;;10.97;69.26
49315;BME280;36672;50.710;12.498;2023-02-17T11:00:48;98637.56;;;10.89;69.80
49315;BME280;36672;50.710;12.498;2023-02-17T11:03:20;98635.88;;;10.88;69.35
49315;BME280;36672;50.710;12.498;2023-02-17T11:05:53;98629.03;;;10.92;69.73
49315;BME280;36672;50.710;12.498;2023-02-17T11:08:26;98624.53;;;11.00;69.86
49315;BME280;36672;50.710;12.498;2023-02-17T11:10:59;98627.69;;;11.10;69.63
49315;BME280;36672;50.710;12.498;2023-02-17T11:13:29;98620.97;;;10.99;69.37
49315;BME280;36672;50.710;12.498;2023-02-17T11:15:55;98613.47;;;10.95;70.02
49315;BME280;36672;50.710;12.498;2023-02-17T11:18:20;98623.63;;;10.92;69.90
49315;BME280;36672;50.710;12.498;2023-02-17T11:20:49;98612.03;;;10.99;70.56
49315;BME280;36672;50.710;12.498;2023-02-17T11:23:23;98619.97;;;11.07;69.70
49315;BME280;36672;50.710;12.498;2023-02-17T11:26:08;98623.31;;;11.16;69.83
49315;BME280;36672;50.710;12.498;2023-02-17T11:28:33;98615.72;;;11.33;69.43
49315;BME280;36672;50.710;12.498;2023-02-17T11:30:59;98615.88;;;11.24;69.00
49315;BME280;36672;50.710;12.498;2023-02-17T11:35:54;98615.66;;;11.19;69.58
49315;BME280;36672;50.710;12.498;2023-02-17T11:38:42;98593.66;;;11.29;69.29
49315;BME280;36672;50.710;12.498;2023-02-17T11:41:06;98590.63;;;11.59;69.26
49315;BME280;36672;50.710;12.498;2023-02-17T11:43:32;98587.94;;;11.79;68.48
49315;BME280;36672;50.710;12.498;2023-02-17T12:01:12;98568.28;;;11.37;69.64
49315;BME280;36672;50.710;12.498;2023-02-17T12:06:39;98559.94;;;11.25;69.88
49315;BME280;36672;50.710;12.498;2023-02-17T12:12:06;98554.84;;;11.02;70.48
49315;BME280;36672;50.710;12.498;2023-02-17T12:35:13;98519.78;;;10.73;71.56
49315;BME280;36672;50.710;12.498;2023-02-17T12:37:53;98512.94;;;10.71;72.12
49315;BME280;36672;50.710;12.498;2023-02-17T12:40:54;98531.25;;;10.75;71.94
49315;BME280;36672;50.710;12.498;2023-02-17T12:43:24;98540.63;;;10.80;71.79
49315;BME280;36672;50.710;12.498;2023-02-17T12:45:51;98492.34;;;10.76;72.04
49315;BME280;36672;50.710;12.498;2023-02-17T12:51:03;98515.88;;;10.83;71.85
49315;BME280;36672;50.710;12.498;2023-02-17T12:53:38;98505.94;;;10.90;71.64
49315;BME280;36672;50.710;12.498;2023-02-17T12:56:06;98497.63;;;10.98;71.59
49315;BME280;36672;50.710;12.498;2023-02-17T12:58:40;98488.34;;;11.14;71.04
49315;BME280;36672;50.710;12.498;2023-02-17T13:01:08;98502.28;;;11.24;71.01
49315;BME280;36672;50.710;12.498;2023-02-17T13:03:36;98510.84;;;11.28;70.02
49315;BME280;36672;50.710;12.498;2023-02-17T13:06:02;98502.28;;;11.18;71.05
49315;BME280;36672;50.710;12.498;2023-02-17T13:08:50;98498.13;;;11.22;70.78
49315;BME280;36672;50.710;12.498;2023-02-17T13:11:25;98506.22;;;11.22;70.86
49315;BME280;36672;50.710;12.498;2023-02-17T13:13:51;98491.69;;;11.30;70.92
49315;BME280;36672;50.710;12.498;2023-02-17T13:16:16;98497.75;;;11.38;70.71
49315;BME280;36672;50.710;12.498;2023-02-17T13:18:45;98471.72;;;11.31;70.69
49315;BME280;36672;50.710;12.498;2023-02-17T13:26:29;98469.22;;;11.36;70.87
49315;BME280;36672;50.710;12.498;2023-02-17T13:31:43;98477.16;;;11.51;70.24
49315;BME280;36672;50.710;12.498;2023-02-17T13:34:09;98483.81;;;11.55;69.66
49315;BME280;36672;50.710;12.498;2023-02-17T13:36:35;98498.38;;;11.47;70.20
49315;BME280;36672;50.710;12.498;2023-02-17T13:39:02;98490.25;;;11.47;69.74
49315;BME280;36672;50.710;12.498;2023-02-17T13:41:32;98486.50;;;11.55;70.08
49315;BME280;36672;50.710;12.498;2023-02-17T13:43:57;98499.66;;;11.65;69.47
49315;BME280;36672;50.710;12.498;2023-02-17T13:46:26;98489.47;;;11.67;69.93
49315;BME280;36672;50.710;12.498;2023-02-17T13:48:58;98483.38;;;11.51;69.79
49315;BME280;36672;50.710;12.498;2023-02-17T13:51:25;98471.31;;;11.40;70.35
49315;BME280;36672;50.710;12.498;2023-02-17T13:53:51;98455.06;;;11.27;70.29
49315;BME280;36672;50.710;12.498;2023-02-17T13:56:23;98464.25;;;11.39;70.71
49315;BME280;36672;50.710;12.498;2023-02-17T13:58:50;98486.31;;;11.36;70.63
49315;BME280;36672;50.710;12.498;2023-02-17T14:01:16;98468.63;;;11.34;71.08
49315;BME280;36672;50.710;12.498;2023-02-17T14:03:47;98481.06;;;11.28;71.67
49315;BME280;36672;50.710;12.498;2023-02-17T14:06:34;98493.34;;;11.37;71.27
49315;BME280;36672;50.710;12.498;2023-02-17T14:09:10;98490.25;;;11.34;71.54
49315;BME280;36672;50.710;12.498;2023-02-17T14:11:35;98494.41;;;11.36;71.06
49315;BME280;36672;50.710;12.498;2023-02-17T14:14:01;98487.13;;;11.37;71.23
49315;BME280;36672;50.710;12.498;2023-02-17T14:19:05;98477.97;;;11.31;71.71
49315;BME280;36672;50.710;12.498;2023-02-17T14:21:31;98465.50;;;11.37;71.79
49315;BME280;36672;50.710;12.498;2023-02-17T14:23:57;98429.69;;;11.28;71.97
49315;BME280;36672;50.710;12.498;2023-02-17T14:26:31;98470.03;;;11.23;71.95
49315;BME280;36672;50.710;12.498;2023-02-17T14:28:57;98468.38;;;11.22;72.59
49315;BME280;36672;50.710;12.498;2023-02-17T14:31:23;98466.91;;;11.06;72.55
49315;BME280;36672;50.710;12.498;2023-02-17T14:33:56;98464.00;;;11.07;72.57
49315;BME280;36672;50.710;12.498;2023-02-17T14:36:35;98456.06;;;10.99;73.18
49315;BME280;36672;50.710;12.498;2023-02-17T14:39:01;98468.72;;;10.92;73.93
49315;BME280;36672;50.710;12.498;2023-02-17T14:41:27;98437.31;;;10.91;73.34